createdAt,value
2018-12-22T00:02:27.020Z,87.09
2018-12-22T00:04:54.523Z,87.41
2018-12-22T00:07:22.049Z,88.67
2018-12-22T00:09:49.568Z,88.71
2018-12-22T00:12:17.231Z,88.90
2018-12-22T00:14:44.736Z,89.08
2018-12-22T00:17:12.231Z,89.17
2018-12-22T00:19:39.791Z,89.31
2018-12-22T00:22:07.292Z,89.76
2018-12-22T00:24:34.839Z,90.38
2018-12-22T00:27:02.352Z,90.46
2018-12-22T00:29:29.879Z,90.44
2018-12-22T00:31:58.107Z,89.99
2018-12-22T00:34:25.627Z,89.69
2018-12-22T00:36:53.163Z,89.21
2018-12-22T00:39:21.164Z,88.80
2018-12-22T00:41:48.667Z,87.87
2018-12-22T00:44:16.195Z,86.31
2018-12-22T00:46:43.795Z,85.50
2018-12-22T00:49:11.424Z,83.78
2018-12-22T00:51:38.923Z,83.55
2018-12-22T00:54:06.415Z,81.59
2018-12-22T00:56:33.940Z,80.64
2018-12-22T00:59:01.451Z,81.21
2018-12-22T01:01:29.292Z,80.61
2018-12-22T01:03:56.792Z,80.63
2018-12-22T01:06:24.296Z,79.92
2018-12-22T01:08:51.819Z,80.28
2018-12-22T01:11:19.427Z,79.06
2018-12-22T01:13:46.958Z,78.69
2018-12-22T01:16:14.475Z,79.14
2018-12-22T01:18:41.985Z,79.17
2018-12-22T01:21:09.516Z,78.66
2018-12-22T01:23:37.008Z,78.56
2018-12-22T01:26:04.691Z,78.52
2018-12-22T01:28:39.353Z,78.61
2018-12-22T01:31:01.742Z,79.19
2018-12-22T01:33:29.273Z,79.12
2018-12-22T01:35:56.797Z,79.15
2018-12-22T01:38:24.435Z,79.78
2018-12-22T01:40:51.928Z,80.04
2018-12-22T01:43:19.443Z,80.12
2018-12-22T01:45:46.971Z,80.19
2018-12-22T01:48:14.464Z,79.17
2018-12-22T01:50:42.128Z,80.70
2018-12-22T01:53:09.623Z,80.94
2018-12-22T01:55:37.155Z,80.80
2018-12-22T01:58:04.679Z,80.90
2018-12-22T02:00:32.291Z,80.95
2018-12-22T02:02:59.861Z,80.56
2018-12-22T02:05:27.355Z,80.23
2018-12-22T02:07:54.864Z,80.44
2018-12-22T02:10:22.387Z,79.75
2018-12-22T02:12:49.888Z,79.79
2018-12-22T02:15:17.415Z,78.45
2018-12-22T02:17:44.924Z,79.20
2018-12-22T02:20:12.460Z,79.06
2018-12-22T02:22:39.987Z,79.03
2018-12-22T02:25:07.488Z,79.40
2018-12-22T02:27:35.021Z,79.02
2018-12-22T02:30:02.527Z,79.71
2018-12-22T02:32:30.059Z,79.06
2018-12-22T02:34:57.609Z,78.13
2018-12-22T02:37:25.135Z,78.88
2018-12-22T02:39:52.633Z,78.70
2018-12-22T02:42:20.164Z,78.00
2018-12-22T02:44:47.663Z,77.36
2018-12-22T02:47:15.159Z,79.58
2018-12-22T02:49:42.783Z,78.84
2018-12-22T02:52:10.300Z,78.77
2018-12-22T02:54:37.987Z,78.65
2018-12-22T02:57:05.483Z,79.31
2018-12-22T02:59:32.983Z,79.49
2018-12-22T03:02:00.524Z,79.85
2018-12-22T03:04:28.029Z,81.34
2018-12-22T03:06:55.569Z,81.84
2018-12-22T03:09:23.065Z,81.68
2018-12-22T03:11:50.559Z,82.38
2018-12-22T03:14:18.093Z,82.83
2018-12-22T03:16:45.620Z,83.10
2018-12-22T03:19:13.185Z,83.50
2018-12-22T03:21:40.683Z,83.82
2018-12-22T03:24:08.180Z,84.43
2018-12-22T03:26:35.733Z,84.04
2018-12-22T03:29:03.393Z,83.22
2018-12-22T03:31:30.941Z,83.37
2018-12-22T03:33:58.444Z,84.22
2018-12-22T03:36:25.943Z,83.75
2018-12-22T03:38:53.470Z,83.14
2018-12-22T03:41:20.979Z,84.23
2018-12-22T03:43:48.511Z,84.25
2018-12-22T03:46:16.022Z,84.38
2018-12-22T03:48:43.535Z,84.37
2018-12-22T03:51:11.061Z,84.37
2018-12-22T03:53:38.561Z,84.51
2018-12-22T03:56:06.088Z,84.25
2018-12-22T03:58:33.586Z,84.47
2018-12-22T04:01:01.173Z,83.84
2018-12-22T04:03:28.679Z,83.80
2018-12-22T04:05:56.175Z,83.06
2018-12-22T04:08:23.728Z,82.77
2018-12-22T04:10:51.325Z,83.20
2018-12-22T04:13:18.851Z,83.32
2018-12-22T04:15:46.349Z,82.47
2018-12-22T04:18:13.895Z,82.54
2018-12-22T04:20:41.396Z,82.30
2018-12-22T04:23:08.895Z,83.41
2018-12-22T04:25:36.428Z,82.57
2018-12-22T04:28:03.925Z,82.56
2018-12-22T04:30:31.460Z,82.19
2018-12-22T04:32:58.962Z,82.16
2018-12-22T04:35:26.483Z,82.37
2018-12-22T04:37:53.983Z,81.75
2018-12-22T04:40:21.809Z,82.60
2018-12-22T04:42:49.421Z,81.52
2018-12-22T04:45:16.919Z,81.53
2018-12-22T04:47:44.445Z,81.74
2018-12-22T04:50:11.970Z,82.21
2018-12-22T04:52:39.732Z,82.17
2018-12-22T04:55:07.232Z,82.08
2018-12-22T04:57:34.727Z,81.98
2018-12-22T05:00:02.263Z,81.94
2018-12-22T05:02:29.784Z,81.62
2018-12-22T05:04:57.495Z,81.58
2018-12-22T05:07:25.088Z,82.15
2018-12-22T05:09:52.858Z,81.98
2018-12-22T05:12:20.383Z,82.54
2018-12-22T05:14:47.884Z,82.24
2018-12-22T05:17:15.444Z,81.71
2018-12-22T05:19:42.952Z,81.42
2018-12-22T05:22:10.450Z,81.54
2018-12-22T05:24:38.580Z,81.37
2018-12-22T05:27:06.076Z,81.02
2018-12-22T05:29:33.916Z,82.21
2018-12-22T05:32:01.415Z,82.08
2018-12-22T05:34:28.908Z,81.15
2018-12-22T05:36:56.437Z,80.58
2018-12-22T05:39:23.945Z,81.14
2018-12-22T05:41:51.615Z,81.48
2018-12-22T05:44:19.111Z,80.62
2018-12-22T05:46:46.612Z,80.91
2018-12-22T05:49:14.164Z,81.81
2018-12-22T05:51:41.671Z,80.95
2018-12-22T05:54:09.214Z,81.00
2018-12-22T05:56:36.728Z,80.44
2018-12-22T05:59:04.719Z,80.79
2018-12-22T06:01:32.247Z,79.85
2018-12-22T06:03:59.744Z,81.29
2018-12-22T06:06:27.288Z,80.92
2018-12-22T06:08:54.787Z,81.57
2018-12-22T06:11:22.295Z,81.17
2018-12-22T06:13:49.815Z,81.60
2018-12-22T06:16:17.331Z,81.87
2018-12-22T06:18:44.867Z,81.73
2018-12-22T06:21:12.364Z,82.17
2018-12-22T06:23:39.880Z,83.12
2018-12-22T06:26:07.411Z,83.67
2018-12-22T06:28:34.908Z,83.00
2018-12-22T06:31:02.709Z,83.32
2018-12-22T06:33:30.235Z,82.69
2018-12-22T06:35:57.731Z,82.60
2018-12-22T06:38:25.267Z,82.58
2018-12-22T06:40:52.781Z,81.91
2018-12-22T06:43:20.329Z,81.45
2018-12-22T06:45:47.824Z,81.80
2018-12-22T06:48:15.419Z,81.79
2018-12-22T06:50:42.951Z,81.72
2018-12-22T06:53:10.464Z,81.28
2018-12-22T06:55:38.117Z,80.33
2018-12-22T06:58:05.616Z,80.82
2018-12-22T07:00:33.207Z,80.30
2018-12-22T07:03:00.739Z,79.92
2018-12-22T07:05:28.347Z,80.82
2018-12-22T07:07:55.972Z,80.55
2018-12-22T07:10:25.478Z,79.93
2018-12-22T07:12:53.017Z,80.46
2018-12-22T07:15:20.563Z,80.38
2018-12-22T07:17:48.059Z,80.04
2018-12-22T07:20:15.616Z,80.07
2018-12-22T07:22:43.112Z,79.68
2018-12-22T07:25:10.636Z,79.71
2018-12-22T07:27:38.184Z,79.22
2018-12-22T07:30:08.488Z,79.36
2018-12-22T07:32:36.023Z,79.66
2018-12-22T07:35:05.023Z,79.98
2018-12-22T07:37:32.524Z,80.40
2018-12-22T07:40:00.060Z,81.12
2018-12-22T07:42:27.783Z,80.67
2018-12-22T07:44:55.328Z,81.44
2018-12-22T07:47:22.850Z,80.96
2018-12-22T07:49:50.352Z,80.08
2018-12-22T07:52:17.879Z,80.24
2018-12-22T07:54:45.379Z,80.81
2018-12-22T07:57:12.916Z,80.97
2018-12-22T07:59:40.411Z,79.86
2018-12-22T08:02:07.911Z,80.85
2018-12-22T08:04:35.439Z,80.18
2018-12-22T08:07:02.942Z,79.45
2018-12-22T08:09:30.616Z,79.91
2018-12-22T08:11:58.115Z,79.55
2018-12-22T08:14:25.608Z,79.75
2018-12-22T08:16:53.137Z,79.07
2018-12-22T08:19:20.633Z,79.04
2018-12-22T08:21:48.412Z,79.38
2018-12-22T08:24:15.913Z,78.59
2018-12-22T08:26:43.412Z,79.24
2018-12-22T08:29:10.942Z,78.78
2018-12-22T08:31:38.440Z,77.59
2018-12-22T08:34:06.515Z,78.12
2018-12-22T08:36:34.011Z,79.21
2018-12-22T08:39:01.511Z,78.14
2018-12-22T08:41:29.055Z,78.22
2018-12-22T08:43:56.640Z,77.63
2018-12-22T08:46:24.163Z,77.03
2018-12-22T08:48:51.679Z,77.28
2018-12-22T08:51:19.203Z,77.25
2018-12-22T08:53:46.751Z,77.78
2018-12-22T08:56:14.251Z,78.33
2018-12-22T08:58:41.834Z,77.49
2018-12-22T09:01:09.404Z,78.06
2018-12-22T09:03:36.939Z,77.05
2018-12-22T09:06:04.439Z,77.54
2018-12-22T09:08:31.972Z,75.65
2018-12-22T09:10:59.479Z,75.54
2018-12-22T09:13:27.015Z,76.48
2018-12-22T09:15:54.532Z,75.53
2018-12-22T09:18:22.027Z,76.08
2018-12-22T09:20:49.567Z,75.77
2018-12-22T09:23:17.065Z,75.92
2018-12-22T09:25:44.613Z,76.25
2018-12-22T09:28:12.117Z,75.62
2018-12-22T09:30:39.620Z,77.74
2018-12-22T09:33:07.152Z,77.69
2018-12-22T09:35:34.666Z,78.31
2018-12-22T09:38:02.348Z,77.15
2018-12-22T09:40:29.853Z,77.86
2018-12-22T09:42:57.355Z,77.28
2018-12-22T09:45:24.903Z,77.33
2018-12-22T09:47:52.403Z,76.44
2018-12-22T09:50:19.984Z,75.88
2018-12-22T09:52:47.491Z,75.80
2018-12-22T09:55:14.991Z,76.48
2018-12-22T09:57:42.530Z,76.67
2018-12-22T10:00:11.443Z,74.42
2018-12-22T10:02:39.279Z,75.45
2018-12-22T10:05:08.378Z,74.14
2018-12-22T10:07:35.895Z,73.62
2018-12-22T10:10:06.225Z,73.94
2018-12-22T10:12:33.728Z,74.10
2018-12-22T10:15:01.295Z,73.60
2018-12-22T10:17:28.795Z,72.93
2018-12-22T10:19:56.356Z,72.09
2018-12-22T10:22:23.891Z,71.81
2018-12-22T10:24:51.390Z,71.15
2018-12-22T10:27:18.957Z,71.53
2018-12-22T10:29:46.484Z,71.37
2018-12-22T10:32:14.191Z,69.88
2018-12-22T10:34:41.700Z,68.08
2018-12-22T10:37:09.194Z,68.89
2018-12-22T10:39:36.720Z,69.48
2018-12-22T10:42:04.235Z,68.91
2018-12-22T10:44:31.774Z,67.64
2018-12-22T10:46:59.295Z,68.17
2018-12-22T10:49:26.907Z,68.72
2018-12-22T10:51:54.412Z,68.68
2018-12-22T10:54:21.931Z,68.87
2018-12-22T10:56:49.459Z,69.44
2018-12-22T10:59:16.959Z,68.93
2018-12-22T11:01:44.515Z,69.49
2018-12-22T11:04:12.040Z,69.44
2018-12-22T11:06:39.584Z,69.97
2018-12-22T11:09:07.211Z,70.40
2018-12-22T11:11:34.715Z,69.65
2018-12-22T11:14:02.280Z,70.13
2018-12-22T11:16:29.784Z,69.57
2018-12-22T11:18:57.320Z,69.25
2018-12-22T11:21:25.539Z,70.06
2018-12-22T11:23:53.120Z,69.68
2018-12-22T11:26:20.628Z,69.81
2018-12-22T11:28:48.143Z,69.78
2018-12-22T11:31:15.719Z,70.13
2018-12-22T11:33:43.226Z,70.94
2018-12-22T11:36:10.800Z,70.44
2018-12-22T11:38:38.391Z,70.63
2018-12-22T11:41:05.895Z,71.94
2018-12-22T11:43:33.475Z,73.01
2018-12-22T11:46:00.983Z,72.05
2018-12-22T11:48:28.859Z,72.01
2018-12-22T11:50:56.371Z,71.38
2018-12-22T11:53:23.888Z,72.50
2018-12-22T11:55:51.420Z,71.92
2018-12-22T11:58:18.923Z,72.34
2018-12-22T12:00:46.688Z,72.74
2018-12-22T12:03:14.198Z,71.31
2018-12-22T12:05:41.701Z,72.94
2018-12-22T12:08:09.254Z,72.56
2018-12-22T12:10:36.783Z,72.83
2018-12-22T12:13:04.376Z,72.75
2018-12-22T12:15:35.791Z,73.45
2018-12-22T12:18:17.515Z,73.84
2018-12-22T12:20:45.027Z,74.11
2018-12-22T12:23:12.600Z,74.30
2018-12-22T12:25:40.319Z,73.53
2018-12-22T12:28:07.855Z,73.01
2018-12-22T12:30:35.488Z,73.46
2018-12-22T12:33:03.026Z,72.20
2018-12-22T12:35:30.699Z,72.90
2018-12-22T12:37:58.229Z,73.50
2018-12-22T12:40:25.773Z,72.63
2018-12-22T12:42:53.300Z,72.30
2018-12-22T12:45:20.844Z,72.05
2018-12-22T12:47:48.624Z,71.79
2018-12-22T12:50:19.856Z,72.07
2018-12-22T12:52:47.360Z,72.06
2018-12-22T12:55:15.788Z,72.09
2018-12-22T12:57:43.291Z,72.10
2018-12-22T13:00:19.091Z,72.21
2018-12-22T13:02:46.598Z,72.63
2018-12-22T13:05:14.099Z,72.63
2018-12-22T13:07:41.653Z,72.87
2018-12-22T13:10:11.891Z,73.56
2018-12-22T13:15:48.453Z,72.56
2018-12-22T13:18:16.484Z,73.08
2018-12-22T13:20:43.983Z,72.45
2018-12-22T13:23:11.480Z,72.56
2018-12-22T13:25:39.240Z,74.61
2018-12-22T13:28:06.738Z,74.12
2018-12-22T13:30:34.263Z,75.71
2018-12-22T13:33:01.759Z,76.06
2018-12-22T13:35:29.286Z,76.81
2018-12-22T13:37:56.788Z,77.03
2018-12-22T13:40:24.387Z,77.41
2018-12-22T13:42:51.888Z,77.36
2018-12-22T13:45:19.389Z,77.06
2018-12-22T13:47:47.013Z,77.91
2018-12-22T13:50:14.586Z,78.54
2018-12-22T13:52:42.319Z,78.70
2018-12-22T13:55:10.326Z,78.62
2018-12-22T13:57:43.647Z,79.11
2018-12-22T14:00:19.320Z,79.62
2018-12-22T14:02:46.848Z,80.20
2018-12-22T14:05:24.795Z,80.53
2018-12-22T14:07:52.346Z,80.37
2018-12-22T14:10:20.648Z,80.10
2018-12-22T14:12:48.163Z,80.18
2018-12-22T14:15:21.795Z,79.94
2018-12-22T14:18:01.900Z,80.33
2018-12-22T14:20:30.728Z,79.66
2018-12-22T14:22:58.347Z,79.35
2018-12-22T14:25:26.043Z,80.10
2018-12-22T14:27:53.549Z,79.55
2018-12-22T14:30:21.061Z,79.70
2018-12-22T14:32:48.587Z,80.00
2018-12-22T14:35:19.988Z,80.32
2018-12-22T14:37:47.538Z,80.60
2018-12-22T14:40:15.044Z,80.38
2018-12-22T14:42:42.571Z,81.29
2018-12-22T14:45:12.991Z,81.83
2018-12-22T14:47:41.147Z,82.65
2018-12-22T14:50:11.279Z,82.79
2018-12-22T14:52:38.797Z,83.21
2018-12-22T14:55:10.455Z,83.85
2018-12-22T14:57:44.901Z,83.79
2018-12-22T15:00:15.591Z,83.84
2018-12-22T15:02:43.215Z,84.35
2018-12-22T15:05:10.716Z,84.13
2018-12-22T15:07:38.251Z,84.26
2018-12-22T15:10:09.440Z,84.41
2018-12-22T15:12:37.066Z,84.67
2018-12-22T15:15:08.927Z,84.31
2018-12-22T15:17:36.755Z,84.83
2018-12-22T15:20:08.287Z,84.70
2018-12-22T15:22:35.816Z,85.03
2018-12-22T15:25:03.743Z,85.50
2018-12-22T15:27:31.243Z,85.96
2018-12-22T15:29:58.772Z,86.03
2018-12-22T15:32:26.274Z,86.45
2018-12-22T15:34:53.799Z,86.23
2018-12-22T15:37:21.301Z,86.33
2018-12-22T15:39:49.234Z,86.16
2018-12-22T15:42:16.741Z,86.78
2018-12-22T15:44:44.270Z,86.32
2018-12-22T15:47:11.827Z,85.81
2018-12-22T15:49:39.323Z,86.42
2018-12-22T15:52:06.987Z,86.21
2018-12-22T15:54:34.488Z,85.80
2018-12-22T15:57:02.003Z,85.91
2018-12-22T15:59:29.652Z,85.93
2018-12-22T16:01:57.152Z,86.50
2018-12-22T16:04:24.691Z,86.34
2018-12-22T16:06:52.276Z,85.45
2018-12-22T16:09:19.831Z,85.02
2018-12-22T16:11:47.364Z,86.00
2018-12-22T16:14:14.891Z,85.93
2018-12-22T16:16:42.455Z,85.99
2018-12-22T16:19:09.991Z,85.79
2018-12-22T16:21:37.491Z,85.22
2018-12-22T16:24:05.048Z,85.61
2018-12-22T16:26:33.270Z,85.87
2018-12-22T16:29:01.132Z,86.37
2018-12-22T16:31:28.640Z,86.52
2018-12-22T16:33:56.164Z,86.00
2018-12-22T16:36:23.737Z,86.34
2018-12-22T16:38:51.238Z,86.36
2018-12-22T16:41:18.849Z,87.50
2018-12-22T16:43:46.430Z,87.26
2018-12-22T16:46:13.939Z,88.20
2018-12-22T16:48:41.663Z,88.90
2018-12-22T16:51:09.164Z,89.55
2018-12-22T16:53:36.695Z,89.84
2018-12-22T16:56:04.196Z,90.39
2018-12-22T16:58:31.694Z,90.80
2018-12-22T17:01:18.804Z,91.07
2018-12-22T17:03:46.312Z,90.63
2018-12-22T17:06:14.447Z,90.80
2018-12-22T17:08:41.943Z,91.18
2018-12-22T17:11:09.471Z,90.54
2018-12-22T17:13:36.992Z,90.34
2018-12-22T17:16:04.589Z,90.76
2018-12-22T17:18:32.259Z,90.14
2018-12-22T17:21:04.484Z,90.44
2018-12-22T17:23:42.728Z,89.43
2018-12-22T17:26:10.601Z,89.49
2018-12-22T17:28:38.118Z,89.39
2018-12-22T17:31:05.674Z,89.53
2018-12-22T17:33:33.167Z,89.58
2018-12-22T17:36:00.700Z,88.63
2018-12-22T17:38:28.307Z,88.86
2018-12-22T17:40:56.063Z,89.27
2018-12-22T17:43:23.599Z,89.56
2018-12-22T17:45:51.092Z,90.00
2018-12-22T17:48:18.695Z,90.09
2018-12-22T17:50:46.207Z,90.63
2018-12-22T17:53:13.751Z,90.64
2018-12-22T17:55:41.263Z,91.21
2018-12-22T17:58:08.859Z,91.08
2018-12-22T18:00:36.437Z,91.78
2018-12-22T18:03:06.159Z,91.76
2018-12-22T18:05:33.687Z,91.47
2018-12-22T18:08:01.197Z,91.61
2018-12-22T18:10:28.936Z,91.66
2018-12-22T18:12:56.477Z,90.73
2018-12-22T18:15:25.387Z,91.26
2018-12-22T18:17:53.025Z,91.23
2018-12-22T18:20:20.525Z,91.58
2018-12-22T18:22:48.199Z,91.03
2018-12-22T18:25:19.000Z,90.85
2018-12-22T18:27:48.648Z,90.58
2018-12-22T18:30:16.191Z,89.68
2018-12-22T18:32:44.891Z,89.93
2018-12-22T18:35:12.527Z,90.56
2018-12-22T18:37:40.028Z,90.34
2018-12-22T18:40:23.667Z,90.41
2018-12-22T18:42:51.339Z,90.12
2018-12-22T18:45:18.879Z,89.90
2018-12-22T18:47:46.379Z,89.76
2018-12-22T18:50:21.053Z,90.09
2018-12-22T18:52:48.587Z,89.39
2018-12-22T18:55:16.105Z,89.98
2018-12-22T18:57:46.006Z,89.81
2018-12-22T19:00:19.068Z,90.16
2018-12-22T19:02:46.635Z,89.59
2018-12-22T19:05:14.937Z,89.68
2018-12-22T19:07:42.435Z,89.74
2018-12-22T19:10:30.519Z,89.77
2018-12-22T19:12:58.034Z,89.80
2018-12-22T19:15:25.716Z,89.55
2018-12-22T19:17:53.815Z,89.44
2018-12-22T19:20:28.048Z,89.37
2018-12-22T19:22:55.547Z,89.52
2018-12-22T19:25:23.460Z,89.35
2018-12-22T19:27:51.015Z,88.53
2018-12-22T19:30:18.514Z,88.21
2018-12-22T19:32:46.051Z,89.06
2018-12-22T19:35:13.605Z,88.60
2018-12-22T19:37:41.199Z,88.54
2018-12-22T19:40:08.888Z,88.85
2018-12-22T19:42:36.455Z,88.94
2018-12-22T19:45:05.772Z,89.58
2018-12-22T19:47:33.288Z,89.57
2018-12-22T19:50:00.832Z,89.08
2018-12-22T19:52:28.337Z,88.86
2018-12-22T19:54:55.860Z,89.05
2018-12-22T19:57:23.983Z,88.21
2018-12-22T19:59:51.507Z,89.12
2018-12-22T20:02:19.006Z,89.39
2018-12-22T20:04:46.620Z,89.26
2018-12-22T20:07:14.115Z,89.13
2018-12-22T20:09:41.619Z,88.89
2018-12-22T20:12:09.148Z,88.76
2018-12-22T20:14:36.739Z,88.39
2018-12-22T20:17:04.291Z,88.01
2018-12-22T20:19:31.788Z,87.81
2018-12-22T20:21:59.283Z,88.00
2018-12-22T20:24:26.822Z,87.43
2018-12-22T20:26:54.328Z,87.62
2018-12-22T20:29:21.851Z,87.39
2018-12-22T20:31:49.344Z,87.57
2018-12-22T20:34:16.855Z,87.64
2018-12-22T20:36:44.381Z,87.50
2018-12-22T20:39:11.879Z,88.32
2018-12-22T20:41:39.408Z,87.58
2018-12-22T20:44:06.904Z,88.12
2018-12-22T20:46:34.504Z,88.86
2018-12-22T20:49:02.011Z,89.23
2018-12-22T20:51:29.535Z,89.15
2018-12-22T20:53:57.060Z,89.54
2018-12-22T20:56:24.572Z,89.71
2018-12-22T20:58:52.197Z,89.75
2018-12-22T21:01:19.695Z,89.44
2018-12-22T21:03:47.528Z,89.29
2018-12-22T21:06:16.622Z,89.03
2018-12-22T21:08:44.120Z,88.71
2018-12-22T21:11:11.743Z,88.81
2018-12-22T21:13:39.246Z,88.55
2018-12-22T21:16:06.980Z,87.68
2018-12-22T21:18:34.477Z,87.84
2018-12-22T21:21:01.975Z,87.48
2018-12-22T21:23:29.515Z,87.13
2018-12-22T21:25:57.035Z,86.86
2018-12-22T21:28:24.669Z,86.69
2018-12-22T21:30:52.179Z,86.94
2018-12-22T21:33:19.691Z,86.79
2018-12-22T21:35:53.280Z,86.72
2018-12-22T21:38:16.739Z,86.66
2018-12-22T21:40:44.419Z,85.90
2018-12-22T21:43:11.916Z,86.83
2018-12-22T21:45:39.423Z,86.64
2018-12-22T21:48:06.952Z,87.28
2018-12-22T21:50:34.454Z,88.09
2018-12-22T21:53:01.988Z,89.10
2018-12-22T21:55:29.488Z,88.81
2018-12-22T21:57:57.013Z,89.62
2018-12-22T22:00:24.547Z,89.89
2018-12-22T22:02:52.043Z,90.21
2018-12-22T22:05:19.597Z,90.88
2018-12-22T22:07:47.119Z,91.00
2018-12-22T22:10:14.618Z,90.63
2018-12-22T22:12:42.141Z,90.48
2018-12-22T22:15:09.636Z,89.80
2018-12-22T22:17:37.309Z,90.77
2018-12-22T22:20:05.618Z,91.13
2018-12-22T22:22:33.130Z,90.96
2018-12-22T22:25:00.656Z,90.77
2018-12-22T22:27:28.185Z,91.24
2018-12-22T22:29:55.740Z,91.27
2018-12-22T22:32:23.232Z,91.63
2018-12-22T22:34:50.739Z,90.79
2018-12-22T22:37:18.268Z,91.33
2018-12-22T22:39:45.776Z,91.73
2018-12-22T22:42:13.307Z,91.92
2018-12-22T22:44:40.851Z,91.72
2018-12-22T22:47:08.447Z,91.75
2018-12-22T22:49:35.974Z,91.68
2018-12-22T22:52:03.474Z,92.52
2018-12-22T22:54:31.015Z,92.67
2018-12-22T22:56:59.441Z,93.02
2018-12-22T22:59:27.151Z,93.10
2018-12-22T23:01:54.683Z,93.42
2018-12-22T23:04:22.588Z,93.76
2018-12-22T23:06:50.435Z,93.54
2018-12-22T23:09:17.933Z,93.65
2018-12-22T23:11:45.432Z,92.88
2018-12-22T23:14:12.969Z,93.54
2018-12-22T23:16:40.670Z,93.57
2018-12-22T23:19:08.319Z,93.65
2018-12-22T23:21:35.904Z,94.22
2018-12-22T23:24:03.659Z,94.77
2018-12-22T23:26:31.157Z,95.22
2018-12-22T23:28:58.656Z,94.70
2018-12-22T23:31:26.209Z,94.63
2018-12-22T23:33:53.708Z,94.92
2018-12-22T23:36:21.351Z,95.24
2018-12-22T23:38:48.851Z,95.29
2018-12-22T23:41:16.352Z,95.37
2018-12-22T23:43:43.877Z,95.00
2018-12-22T23:46:11.392Z,95.67
2018-12-22T23:48:38.933Z,95.38
2018-12-22T23:51:06.542Z,95.53
2018-12-22T23:53:34.177Z,95.39
2018-12-22T23:56:01.699Z,94.71
2018-12-22T23:58:29.203Z,93.66
